createdAt,value
2018-07-02T00:01:37.585Z,100068.23
2018-07-02T00:05:52.428Z,100075.75
2018-07-02T00:09:56.234Z,100067.83
2018-07-02T00:13:59.857Z,100066.12
2018-07-02T00:18:03.284Z,100059.97
2018-07-02T00:22:06.725Z,100064.89
2018-07-02T00:26:10.154Z,100064.92
2018-07-02T00:30:13.561Z,100064.95
2018-07-02T00:34:17.009Z,100054.37
2018-07-02T00:38:20.450Z,100053.10
2018-07-02T00:42:23.881Z,100056.17
2018-07-02T00:46:27.280Z,100051.80
2018-07-02T00:50:30.658Z,100056.20
2018-07-02T00:54:34.095Z,100047.84
2018-07-02T00:58:37.509Z,100049.19
2018-07-02T01:02:40.943Z,100050.98
2018-07-02T01:06:44.347Z,100044.82
2018-07-02T01:10:47.894Z,100047.48
2018-07-02T01:14:51.357Z,100047.55
2018-07-02T01:18:54.789Z,100046.31
2018-07-02T01:22:58.193Z,100051.27
2018-07-02T01:27:01.623Z,100046.00
2018-07-02T01:31:05.112Z,100044.31
2018-07-02T01:35:08.700Z,100043.49
2018-07-02T01:39:12.124Z,100039.14
2018-07-02T01:43:15.545Z,100034.80
2018-07-02T01:47:18.961Z,100035.75
2018-07-02T01:51:22.368Z,100042.88
2018-07-02T01:55:25.868Z,100048.64
2018-07-02T01:59:29.290Z,100044.69
2018-07-02T02:03:32.693Z,100038.95
2018-07-02T02:07:36.146Z,100038.09
2018-07-02T02:11:39.697Z,100040.75
2018-07-02T02:15:43.121Z,100042.97
2018-07-02T02:19:46.518Z,100044.78
2018-07-02T02:23:49.978Z,100036.45
2018-07-02T02:27:53.408Z,100039.11
2018-07-02T02:31:56.896Z,100030.72
2018-07-02T02:36:00.321Z,100047.52
2018-07-02T02:40:03.924Z,100047.55
2018-07-02T02:44:07.732Z,100044.95
2018-07-02T02:48:11.135Z,100039.67
2018-07-02T02:52:14.551Z,100042.78
2018-07-02T02:56:17.970Z,100035.31
2018-07-02T03:00:21.381Z,100035.32
2018-07-02T03:04:24.822Z,100033.55
2018-07-02T03:08:28.237Z,100040.61
2018-07-02T03:12:31.646Z,100036.19
2018-07-02T03:16:35.119Z,100038.84
2018-07-02T03:20:38.742Z,100043.27
2018-07-02T03:24:42.420Z,100041.08
2018-07-02T03:28:45.832Z,100042.41
2018-07-02T03:32:49.429Z,100038.45
2018-07-02T03:36:52.841Z,100037.57
2018-07-02T03:40:56.377Z,100040.23
2018-07-02T03:45:00.135Z,100039.78
2018-07-02T03:49:03.697Z,100037.17
2018-07-02T03:53:07.105Z,100041.56
2018-07-02T03:57:10.572Z,100041.55
2018-07-02T04:01:14.081Z,100044.65
2018-07-02T04:05:17.521Z,100049.95
2018-07-02T04:09:20.925Z,100047.31
2018-07-02T04:13:24.381Z,100042.00
2018-07-02T04:17:27.846Z,100049.02
2018-07-02T04:21:31.286Z,100043.64
2018-07-02T04:25:34.901Z,100041.75
2018-07-02T04:29:38.400Z,100044.70
2018-07-02T04:33:41.806Z,100033.51
2018-07-02T04:37:46.137Z,100032.06
2018-07-02T04:41:49.558Z,100038.20
2018-07-02T04:45:52.993Z,100034.30
2018-07-02T04:49:56.481Z,100032.14
2018-07-02T04:53:59.923Z,100034.38
2018-07-02T04:58:03.687Z,100039.27
2018-07-02T05:02:07.117Z,100043.23
2018-07-02T05:06:10.633Z,100034.36
2018-07-02T05:10:14.025Z,100031.19
2018-07-02T05:14:17.479Z,100030.33
2018-07-02T05:18:20.929Z,100034.30
2018-07-02T05:22:24.320Z,100035.06
2018-07-02T05:26:27.829Z,100041.98
2018-07-02T05:30:31.252Z,100040.87
2018-07-02T05:34:34.689Z,100038.47
2018-07-02T05:38:38.122Z,100043.57
2018-07-02T05:42:41.573Z,100047.39
2018-07-02T05:46:45.012Z,100046.23
2018-07-02T05:50:48.459Z,100032.70
2018-07-02T05:54:51.952Z,100038.30
2018-07-02T05:58:55.334Z,100039.39
2018-07-02T06:02:58.783Z,100025.38
2018-07-02T06:07:02.195Z,100028.16
2018-07-02T06:11:05.634Z,100027.42
2018-07-02T06:15:09.058Z,100019.55
2018-07-02T06:19:12.483Z,100016.39
2018-07-02T06:23:15.947Z,100019.58
2018-07-02T06:27:19.670Z,100019.34
2018-07-02T06:31:23.074Z,100020.34
2018-07-02T06:35:26.469Z,100017.22
2018-07-02T06:39:29.906Z,100014.03
2018-07-02T06:43:33.289Z,100003.66
2018-07-02T06:47:36.707Z,100013.39
2018-07-02T06:51:40.116Z,100015.34
2018-07-02T06:55:43.585Z,100011.36
2018-07-02T06:59:47.181Z,99994.03
2018-07-02T07:03:50.607Z,100005.69
2018-07-02T07:07:54.041Z,100004.55
2018-07-02T07:11:57.434Z,100004.55
2018-07-02T07:16:00.872Z,100001.28
2018-07-02T07:20:04.734Z,99990.95
2018-07-02T07:24:08.165Z,99987.80
2018-07-02T07:28:11.555Z,99994.91
2018-07-02T07:32:15.002Z,99988.55
2018-07-02T07:36:18.916Z,99982.23
2018-07-02T07:40:22.368Z,99987.44
2018-07-02T07:44:25.848Z,99987.20
2018-07-02T07:48:29.538Z,99976.05
2018-07-02T07:52:32.945Z,99967.05
2018-07-02T07:56:36.400Z,99965.14
2018-07-02T08:00:39.786Z,99960.69
2018-07-02T08:08:46.625Z,99953.67
2018-07-02T08:12:50.013Z,99951.47
2018-07-02T08:16:53.462Z,99948.83
2018-07-02T08:20:56.862Z,99952.11
2018-07-02T08:25:00.296Z,99942.19
2018-07-02T08:29:03.812Z,99953.06
2018-07-02T08:33:07.262Z,99935.44
2018-07-02T08:37:10.906Z,99932.37
2018-07-02T08:41:14.305Z,99930.38
2018-07-02T08:45:17.749Z,99932.52
2018-07-02T08:49:21.173Z,99920.44
2018-07-02T08:53:24.857Z,99922.03
2018-07-02T08:57:28.323Z,99915.20
2018-07-02T09:01:31.804Z,99915.20
2018-07-02T09:05:35.613Z,99921.25
2018-07-02T09:09:39.028Z,99913.62
2018-07-02T09:13:42.850Z,99914.91
2018-07-02T09:17:46.257Z,99912.40
2018-07-02T09:21:49.733Z,99890.16
2018-07-02T09:25:53.094Z,99891.68
2018-07-02T09:29:56.525Z,99884.48
2018-07-02T09:33:59.953Z,99889.27
2018-07-02T09:38:03.378Z,99896.73
2018-07-02T09:42:06.818Z,99890.80
2018-07-02T09:46:10.257Z,99892.98
2018-07-02T09:50:13.742Z,99893.99
2018-07-02T09:54:17.244Z,99894.00
2018-07-02T09:58:20.681Z,99890.05
2018-07-02T10:02:24.113Z,99889.00
2018-07-02T10:06:27.504Z,99889.97
2018-07-02T10:10:30.965Z,99878.51
2018-07-02T10:14:34.435Z,99876.05
2018-07-02T10:18:37.894Z,99882.14
2018-07-02T10:22:41.378Z,99871.95
2018-07-02T10:26:44.789Z,99866.71
2018-07-02T10:30:48.248Z,99875.41
2018-07-02T10:34:51.698Z,99860.72
2018-07-02T10:38:55.101Z,99859.45
2018-07-02T10:42:58.563Z,99855.56
2018-07-02T10:47:02.003Z,99851.58
2018-07-02T10:51:05.380Z,99856.08
2018-07-02T10:55:08.910Z,99846.30
2018-07-02T10:59:12.330Z,99840.89
2018-07-02T11:03:15.721Z,99828.69
2018-07-02T11:07:19.108Z,99833.55
2018-07-02T11:11:22.591Z,99829.66
2018-07-02T11:15:27.073Z,99836.44
2018-07-02T11:19:30.730Z,99833.54
2018-07-02T11:23:34.156Z,99818.89
2018-07-02T11:27:37.574Z,99817.30
2018-07-02T11:31:40.983Z,99807.09
2018-07-02T11:35:44.440Z,99804.07
2018-07-02T11:39:47.902Z,99793.70
2018-07-02T11:43:51.367Z,99791.58
2018-07-02T11:47:54.753Z,99795.12
2018-07-02T11:51:58.188Z,99790.04
2018-07-02T11:56:01.607Z,99788.06
2018-07-02T12:00:05.924Z,99794.66
2018-07-02T12:04:09.531Z,99782.41
2018-07-02T12:08:12.943Z,99778.19
2018-07-02T12:12:16.351Z,99772.63
2018-07-02T12:16:19.756Z,99771.27
2018-07-02T12:20:23.193Z,99774.15
2018-07-02T12:24:26.600Z,99765.28
2018-07-02T12:28:30.023Z,99763.03
2018-07-02T12:32:33.456Z,99761.69
2018-07-02T12:36:36.899Z,99757.69
2018-07-02T12:40:40.286Z,99753.47
2018-07-02T12:44:43.712Z,99762.02
2018-07-02T12:48:47.122Z,99761.10
2018-07-02T12:52:50.589Z,99753.53
2018-07-02T12:56:54.090Z,99752.38
2018-07-02T13:00:57.525Z,99749.28
2018-07-02T13:05:00.951Z,99741.83
2018-07-02T13:09:06.981Z,99745.81
2018-07-02T13:13:10.406Z,99750.41
2018-07-02T13:17:13.810Z,99753.83
2018-07-02T13:25:47.669Z,99742.80
2018-07-02T13:39:09.235Z,99735.16
2018-07-02T13:50:55.151Z,99737.44
2018-07-02T14:12:49.375Z,99722.58
2018-07-02T14:34:50.288Z,99706.78
2018-07-02T14:39:00.296Z,99702.66
2018-07-02T14:43:23.545Z,99708.73
2018-07-02T14:52:11.300Z,99708.48
2018-07-02T14:56:21.145Z,99703.63
2018-07-02T15:00:29.985Z,99695.95
2018-07-02T15:04:44.554Z,99700.53
2018-07-02T15:08:53.141Z,99706.57
2018-07-02T15:13:01.644Z,99701.88
2018-07-02T15:17:13.107Z,99706.86
2018-07-02T15:21:29.482Z,99701.88
2018-07-02T15:25:44.644Z,99703.67
2018-07-02T15:29:52.886Z,99696.00
2018-07-02T15:34:07.167Z,99701.88
2018-07-02T15:38:20.756Z,99701.47
2018-07-02T15:42:39.184Z,99691.84
2018-07-02T15:46:56.694Z,99695.27
2018-07-02T15:51:11.293Z,99694.38
2018-07-02T15:55:26.750Z,99680.27
2018-07-02T15:59:41.103Z,99686.22
2018-07-02T16:03:51.210Z,99687.57
2018-07-02T16:12:19.606Z,99695.19
2018-07-02T16:16:31.483Z,99698.74
2018-07-02T16:20:47.317Z,99698.34
2018-07-02T16:24:52.929Z,99689.89
2018-07-02T16:28:57.411Z,99686.22
2018-07-02T16:33:06.232Z,99685.85
2018-07-02T16:37:13.760Z,99681.98
2018-07-02T16:41:22.274Z,99684.06
2018-07-02T16:50:07.888Z,99693.28
2018-07-02T16:54:12.351Z,99696.70
2018-07-02T17:02:41.417Z,99700.20
2018-07-02T17:06:52.348Z,99694.13
2018-07-02T17:11:05.517Z,99704.00
2018-07-02T17:19:34.434Z,99702.37
2018-07-02T17:23:46.851Z,99703.30
2018-07-02T17:27:54.754Z,99703.50
2018-07-02T17:32:02.881Z,99705.78
2018-07-02T17:36:16.459Z,99704.56
2018-07-02T17:40:25.451Z,99699.54
2018-07-02T17:44:29.334Z,99711.40
2018-07-02T17:48:37.309Z,99717.34
2018-07-02T17:52:47.395Z,99712.53
2018-07-02T17:56:54.430Z,99714.44
2018-07-02T18:01:06.946Z,99718.55
2018-07-02T18:05:14.768Z,99722.27
2018-07-02T18:09:19.525Z,99731.86
2018-07-02T18:13:32.162Z,99729.97
2018-07-02T18:17:39.741Z,99731.33
2018-07-02T18:21:58.488Z,99730.70
2018-07-02T18:26:09.530Z,99730.45
2018-07-02T18:34:30.324Z,99735.53
2018-07-02T18:38:44.165Z,99732.62
2018-07-02T18:42:49.963Z,99740.05
2018-07-02T18:47:02.835Z,99742.44
2018-07-02T18:51:10.648Z,99752.55
2018-07-02T18:55:24.959Z,99756.36
2018-07-02T18:59:35.315Z,99766.38
2018-07-02T19:03:45.246Z,99773.36
2018-07-02T19:08:02.450Z,99772.79
2018-07-02T19:12:08.688Z,99786.53
2018-07-02T19:16:18.674Z,99787.92
2018-07-02T19:20:31.212Z,99792.39
2018-07-02T19:24:41.313Z,99798.85
2018-07-02T19:28:51.272Z,99796.13
2018-07-02T19:33:00.187Z,99803.20
2018-07-02T19:37:08.464Z,99803.63
2018-07-02T19:41:17.608Z,99805.77
2018-07-02T19:45:23.522Z,99813.22
2018-07-02T19:49:34.862Z,99812.67
2018-07-02T19:53:44.568Z,99812.70
2018-07-02T19:57:54.009Z,99817.01
2018-07-02T20:02:03.053Z,99816.88
2018-07-02T20:06:10.223Z,99820.46
2018-07-02T20:10:20.144Z,99824.88
2018-07-02T20:14:43.004Z,99822.86
2018-07-02T20:18:57.833Z,99826.52
2018-07-02T20:23:07.113Z,99820.42
2018-07-02T20:27:19.147Z,99828.34
2018-07-02T20:31:31.793Z,99824.71
2018-07-02T20:35:49.438Z,99824.69
2018-07-02T20:40:05.951Z,99824.41
2018-07-02T20:44:28.626Z,99836.52
2018-07-02T20:48:46.129Z,99843.33
2018-07-02T21:01:25.707Z,99844.28
2018-07-02T21:05:35.965Z,99844.17
2018-07-02T21:14:05.173Z,99860.00
2018-07-02T21:22:29.965Z,99868.48
2018-07-02T21:26:39.773Z,99865.74
2018-07-02T21:30:49.501Z,99867.39
2018-07-02T21:39:23.431Z,99860.73
2018-07-02T21:47:54.710Z,99857.55
2018-07-02T21:52:05.167Z,99864.95
2018-07-02T21:56:21.851Z,99854.59
2018-07-02T22:09:18.113Z,99867.98
2018-07-02T22:13:24.200Z,99862.97
2018-07-02T22:17:38.664Z,99866.25
2018-07-02T22:21:48.075Z,99865.91
2018-07-02T22:30:14.099Z,99869.85
2018-07-02T22:34:30.767Z,99864.72
2018-07-02T22:38:49.174Z,99864.81
2018-07-02T22:43:00.388Z,99861.84
2018-07-02T22:51:33.097Z,99870.59
2018-07-02T22:55:52.573Z,99869.38
2018-07-02T22:59:59.603Z,99872.26
2018-07-02T23:04:11.026Z,99877.03
2018-07-02T23:08:20.791Z,99882.69
2018-07-02T23:12:32.842Z,99882.19
2018-07-02T23:16:44.807Z,99877.09
2018-07-02T23:25:14.016Z,99886.51
2018-07-02T23:29:24.025Z,99888.42
2018-07-02T23:33:34.374Z,99890.77
2018-07-02T23:37:49.313Z,99885.05
2018-07-02T23:42:01.286Z,99886.88
2018-07-02T23:50:26.739Z,99878.61
2018-07-02T23:54:39.028Z,99881.30
